Gilford, Vermont
Current Conditions -  °F | °C
As of 12:55 PM on Friday 21 Nov 2014 (Local Time) from KEEN Reporting Station
Broken Clouds Broken Clouds  
Wind Chill: 16°   Ceiling: 4900
Heat Index: 28°   Visibility: 10mi
Dew Point:   Wind: 18mph
Humidity: 43%   Direction: 300°WNW
Pressure: 30.16"   Gusts: 24mph
Location:  42.8513°N, 72.6568°W
Report Text: KEEN 211755Z AUTO 30016G21KT 10SM BKN049 BKN060 M02/M13 A3016 RMK AO1 11010 21060 52017
Loading
Personal Weather Stations






























Interactive Weather Map New forecast layout! Learn more

10-Day Weather Forecast

Advertisements
Track Severe Weather on mobile